ěÝzenÝ letovÚho provozu ╚eskÚ republiky
Letiste: LKMT Aktualizace: 06.07.2022 08:04:31  UTC
 METAR LKMT 06.07. 08:00 RRA
METAR LKMT 060800Z 02006KT 9999 FEW034 16/13 Q1020 TEMPO 4500 SHRA FEW025CB=
 TAF LKMT 06.07. 05:00 ...
TAF LKMT 060500Z 0606/0712 01008KT 9999 SCT040      TEMPO 0606/0618 8000 SHRA SCT035TCU      PROB40 TEMPO 0607/0617 34014KT 4000 TSRA SCT030CB      BECMG 0620/0622 23008KT      TEMPO 0710/0712 -SHRA BKN035=